Time;durP1;ratioP1;P1;durP2;ratioP2;P2;SDS_P1;SDS_P2;PMS_P1;PMS_P2;Temp;Humidity;BMP_temperature;BMP_pressure;BME280_temperature;BME280_humidity;BME280_pressure;Samples;Min_cycle;Max_cycle;Signal;HPM_P1;HPM_P2
2022/02/10 00:06:57;;;;;;;6.23;5.63;;;6.20;85.50;;;;;;5033291;28;20275;-88
2022/02/10 00:20:25;;;;;;;6.93;5.77;;;6.20;87.10;;;;;;5031402;28;20742;-89
2022/02/10 00:23:10;;;;;;;7.67;6.03;;;6.30;87.30;;;;;;5023598;28;20228;-88
2022/02/10 00:36:37;;;;;;;5.67;5.10;;;5.50;90.40;;;;;;5031341;28;20245;-88
2022/02/10 00:41:44;;;;;;;5.73;5.13;;;5.70;90.70;;;;;;5034054;28;20280;-88
2022/02/10 00:44:10;;;;;;;5.70;5.10;;;5.80;90.80;;;;;;5034750;28;20221;-89
2022/02/10 00:46:35;;;;;;;7.43;4.97;;;5.80;89.60;;;;;;5024342;28;20875;-88
2022/02/10 00:49:01;;;;;;;6.27;5.57;;;5.80;89.80;;;;;;5035223;28;20303;-88
2022/02/10 00:51:27;;;;;;;6.00;5.03;;;5.90;89.00;;;;;;5030475;28;20231;-90
2022/02/10 00:53:53;;;;;;;7.73;5.27;;;5.90;89.60;;;;;;5024580;28;20227;-88
2022/02/10 00:56:20;;;;;;;6.17;5.50;;;5.90;88.10;;;;;;5022564;28;20292;-88
2022/02/10 00:58:56;;;;;;;6.17;5.37;;;5.90;88.10;;;;;;5035817;28;20261;-89
2022/02/10 01:12:28;;;;;;;7.23;5.63;;;5.60;90.10;;;;;;5040377;28;20673;-88
2022/02/10 01:31:21;;;;;;;5.77;5.13;;;5.60;90.00;;;;;;5034971;28;20271;-88
2022/02/10 01:33:47;;;;;;;6.17;5.57;;;5.70;90.60;;;;;;5022238;28;20182;-89
2022/02/10 01:36:13;;;;;;;7.20;5.43;;;5.70;90.10;;;;;;5032230;28;20197;-89
2022/02/10 01:38:38;;;;;;;7.30;5.77;;;5.70;90.10;;;;;;5034478;28;20212;-89
2022/02/10 02:03:52;;;;;;;7.57;6.77;;;5.40;88.50;;;;;;5033283;28;20219;-88
2022/02/10 02:05:53;;;;;;;6.10;5.50;;;5.30;89.40;;;;;;5022118;28;20201;-87
2022/02/10 02:08:26;;;;;;;11.53;7.63;;;5.20;88.90;;;;;;5019799;28;20204;-88
2022/02/10 02:10:52;;;;;;;10.30;7.97;;;5.20;91.60;;;;;;5029243;28;20707;-88
2022/02/10 02:13:18;;;;;;;14.13;8.73;;;4.90;89.80;;;;;;5030003;28;20693;-89
2022/02/10 02:15:44;;;;;;;10.47;8.30;;;4.60;92.20;;;;;;5018995;28;20272;-89
2022/02/10 02:18:09;;;;;;;9.63;8.17;;;4.40;94.70;;;;;;5026799;28;20252;-87
2022/02/10 02:20:35;;;;;;;9.83;8.83;;;4.30;98.80;;;;;;5031830;28;20366;-87
2022/02/10 02:23:01;;;;;;;11.43;9.80;;;4.20;99.20;;;;;;5033831;28;20231;-87
2022/02/10 02:25:27;;;;;;;13.30;10.60;;;4.10;99.90;;;;;;5029040;28;20185;-87
2022/02/10 02:27:56;;;;;;;12.47;10.83;;;4.00;99.90;;;;;;5031679;28;20192;-87
2022/02/10 02:30:25;;;;;;;11.67;9.27;;;4.00;99.90;;;;;;5029130;28;20212;-87
2022/02/10 02:33:26;;;;;;;11.03;9.93;;;4.00;99.90;;;;;;5020675;28;20185;-87
2022/02/10 03:06:14;;;;;;;9.13;7.53;;;4.70;98.40;;;;;;5030730;28;20204;-88
2022/02/10 03:08:44;;;;;;;8.40;7.60;;;4.80;96.70;;;;;;5025418;28;20205;-87
2022/02/10 03:11:11;;;;;;;7.60;6.83;;;4.80;96.00;;;;;;5038200;28;20280;-88
2022/02/10 03:13:44;;;;;;;8.40;7.33;;;4.90;96.50;;;;;;5045350;28;20197;-87
2022/02/10 03:19:16;;;;;;;8.70;7.43;;;5.00;96.30;;;;;;5024470;28;20204;-86
2022/02/10 04:07:58;;;;;;;9.13;7.33;;;3.90;99.10;;;;;;5035424;28;20221;-88
2022/02/10 04:26:28;;;;;;;8.60;7.57;;;3.50;99.90;;;;;;5028035;28;20265;-88
2022/02/10 04:45:21;;;;;;;6.73;6.10;;;3.30;99.90;;;;;;5029055;28;20781;-90
2022/02/10 04:56:11;;;;;;;14.27;8.00;;;3.20;99.90;;;;;;5032167;28;20193;-87
2022/02/10 05:02:13;;;;;;;11.60;8.00;;;3.20;99.90;;;;;;5032073;28;20213;-88
2022/02/10 05:22:42;;;;;;;7.80;6.03;;;4.40;98.80;;;;;;5026613;28;20212;-88
2022/02/10 05:35:51;;;;;;;7.17;6.17;;;4.50;95.90;;;;;;5024707;28;20225;-87
2022/02/10 05:38:25;;;;;;;8.10;7.30;;;4.50;96.40;;;;;;5034012;28;20215;-88
2022/02/10 05:44:25;;;;;;;8.23;6.57;;;4.50;97.00;;;;;;5026374;28;20283;-88
2022/02/10 05:46:42;;;;;;;10.80;7.67;;;4.60;96.80;;;;;;5030883;28;20205;-88
2022/02/10 05:54:30;;;;;;;8.07;7.00;;;4.60;94.80;;;;;;5035473;28;20189;-86
2022/02/10 05:57:10;;;;;;;8.87;7.10;;;4.50;95.60;;;;;;5037226;28;20215;-88
2022/02/10 06:03:06;;;;;;;13.13;8.43;;;4.60;94.90;;;;;;5035333;28;20227;-87
2022/02/10 07:08:02;;;;;;;11.50;8.03;;;3.70;97.10;;;;;;5033077;28;20288;-86
2022/02/10 07:56:46;;;;;;;13.63;9.73;;;3.70;98.00;;;;;;5033908;28;20196;-87
2022/02/10 07:59:21;;;;;;;15.03;8.17;;;3.70;99.90;;;;;;5023342;28;20204;-87
2022/02/10 08:17:56;;;;;;;12.97;8.87;;;3.90;99.90;;;;;;5063556;28;20207;-87
2022/02/10 09:05:12;;;;;;;11.50;5.03;;;6.80;94.30;;;;;;5034663;28;20217;-87
2022/02/10 09:24:57;;;;;;;6.50;5.17;;;7.50;89.40;;;;;;5017845;28;20254;-88
2022/02/10 09:58:37;;;;;;;11.63;6.93;;;8.70;86.30;;;;;;5025513;28;20535;-88
2022/02/10 10:01:14;;;;;;;6.40;5.80;;;8.80;86.50;;;;;;5029738;28;20201;-87
2022/02/10 10:03:44;;;;;;;9.00;6.57;;;8.90;83.70;;;;;;5029826;28;20660;-87
2022/02/10 10:06:22;;;;;;;8.47;6.57;;;8.90;84.40;;;;;;5035956;28;20194;-87
2022/02/10 10:17:10;;;;;;;8.93;7.20;;;8.70;84.80;;;;;;5026112;28;20205;-86
2022/02/10 10:23:07;;;;;;;10.37;7.17;;;8.90;83.90;;;;;;5030580;28;20204;-87
2022/02/10 10:50:59;;;;;;;10.67;7.63;;;8.80;82.90;;;;;;5033841;28;20246;-88
2022/02/10 11:22:27;;;;;;;10.40;6.80;;;8.40;85.10;;;;;;5030710;28;20197;-88
2022/02/10 12:34:40;;;;;;;10.57;6.63;;;8.00;85.10;;;;;;5028394;28;20218;-88
2022/02/10 12:36:56;;;;;;;11.30;6.30;;;8.00;83.70;;;;;;5019541;28;20202;-87
2022/02/10 13:23:36;;;;;;;8.60;6.07;;;8.00;82.30;;;;;;5032768;28;20259;-88
2022/02/10 13:27:22;;;;;;;8.60;6.60;;;8.10;80.60;;;;;;5029174;28;20204;-87
2022/02/10 14:18:55;;;;;;;6.50;5.83;;;8.10;77.40;;;;;;5044185;28;20201;-87
2022/02/10 14:21:30;;;;;;;7.40;6.03;;;8.10;77.60;;;;;;5049615;28;20215;-86
2022/02/10 14:28:53;;;;;;;9.00;6.13;;;8.10;77.90;;;;;;5031559;28;20216;-89
2022/02/10 14:31:19;;;;;;;7.10;5.77;;;8.00;77.80;;;;;;5020890;28;20254;-88
2022/02/10 14:33:46;;;;;;;10.57;6.67;;;8.00;77.90;;;;;;5041607;28;20181;-88
2022/02/10 14:36:29;;;;;;;7.50;6.63;;;8.00;78.30;;;;;;5025303;28;20538;-88
2022/02/10 14:39:50;;;;;;;7.40;6.27;;;8.00;78.60;;;;;;5026896;28;20196;-89
2022/02/10 14:43:04;;;;;;;8.30;7.07;;;8.00;78.00;;;;;;5018130;28;20225;-87
2022/02/10 15:35:49;;;;;;;6.03;5.43;;;7.50;82.10;;;;;;5024726;28;20193;-88
2022/02/10 15:48:56;;;;;;;6.77;5.80;;;7.50;83.10;;;;;;5022510;28;20239;-87
2022/02/10 16:17:28;;;;;;;7.57;5.03;;;7.40;83.40;;;;;;5010884;28;20264;-89
2022/02/10 16:19:54;;;;;;;6.77;5.50;;;7.40;83.90;;;;;;5025618;28;20196;-88
2022/02/10 16:22:26;;;;;;;7.17;5.50;;;7.40;83.60;;;;;;5024169;28;20215;-89
2022/02/10 16:25:00;;;;;;;8.93;5.70;;;7.40;83.30;;;;;;5023416;28;20203;-88
2022/02/10 16:27:31;;;;;;;7.00;5.77;;;7.40;83.30;;;;;;5035959;28;20192;-87
2022/02/10 16:30:00;;;;;;;7.63;6.00;;;7.30;83.60;;;;;;5034134;28;20348;-88
2022/02/10 16:32:29;;;;;;;7.30;5.70;;;7.40;83.20;;;;;;5027591;28;20224;-88
2022/02/10 16:34:56;;;;;;;7.20;5.50;;;7.40;83.30;;;;;;5023969;28;20193;-88
2022/02/10 16:37:22;;;;;;;7.00;5.80;;;7.40;83.70;;;;;;5032266;28;20280;-88
2022/02/10 16:39:48;;;;;;;6.63;6.03;;;7.30;84.50;;;;;;5030370;28;20218;-87
2022/02/10 16:42:16;;;;;;;8.37;5.67;;;7.20;84.60;;;;;;5025052;28;20221;-87
2022/02/10 16:44:44;;;;;;;9.07;5.93;;;7.30;83.90;;;;;;5027881;28;20185;-89
2022/02/10 16:47:11;;;;;;;8.33;5.63;;;7.20;84.50;;;;;;5022866;28;20193;-88
2022/02/10 16:49:45;;;;;;;5.37;4.73;;;7.20;83.70;;;;;;5024338;28;20272;-88
2022/02/10 16:52:18;;;;;;;6.43;5.73;;;7.30;83.20;;;;;;5024279;28;20208;-88
2022/02/10 16:54:46;;;;;;;5.53;4.97;;;7.30;83.40;;;;;;5027508;28;20221;-89
2022/02/10 16:57:34;;;;;;;9.40;5.80;;;7.40;81.30;;;;;;5027257;28;20182;-88
2022/02/10 17:00:11;;;;;;;6.67;4.90;;;7.30;82.30;;;;;;5023575;28;20685;-88
2022/02/10 17:03:12;;;;;;;5.73;4.67;;;7.40;81.40;;;;;;5019154;28;20188;-87
2022/02/10 17:44:05;;;;;;;6.33;5.00;;;7.30;81.00;;;;;;5035923;28;20215;-88
2022/02/10 17:51:41;;;;;;;7.40;5.03;;;7.40;81.70;;;;;;5033840;28;20262;-87
2022/02/10 17:54:07;;;;;;;5.70;5.10;;;7.20;82.00;;;;;;5020504;28;20224;-90
2022/02/10 17:56:34;;;;;;;6.30;5.70;;;7.20;82.50;;;;;;5028778;28;20197;-88
2022/02/10 17:59:01;;;;;;;7.13;5.20;;;7.20;82.20;;;;;;5022036;28;20192;-88
2022/02/10 18:01:28;;;;;;;5.83;5.23;;;7.30;81.90;;;;;;5030265;28;20220;-88
2022/02/10 18:03:54;;;;;;;6.03;5.33;;;7.30;81.80;;;;;;5030169;28;20197;-89
2022/02/10 18:06:22;;;;;;;6.67;5.13;;;7.40;81.00;;;;;;5031756;28;20185;-88
2022/02/10 18:14:10;;;;;;;6.93;5.23;;;7.30;81.90;;;;;;5032997;28;20589;-89
2022/02/10 18:16:46;;;;;;;5.97;5.30;;;7.30;82.10;;;;;;5031360;28;20245;-90
2022/02/10 18:19:58;;;;;;;8.13;5.80;;;7.40;81.70;;;;;;5029421;28;20584;-90
2022/02/10 18:30:26;;;;;;;7.70;5.87;;;7.20;82.20;;;;;;5033100;28;20230;-89
2022/02/10 19:01:28;;;;;;;9.00;7.17;;;6.80;84.60;;;;;;5038188;28;20187;-92
2022/02/10 19:03:41;;;;;;;7.03;6.33;;;6.60;86.10;;;;;;5063032;28;20227;-89
2022/02/10 19:08:19;;;;;;;12.50;7.13;;;6.60;86.90;;;;;;5035953;28;20232;-89
2022/02/10 19:10:48;;;;;;;7.70;6.90;;;6.50;86.50;;;;;;5037817;28;20221;-89
2022/02/10 19:13:16;;;;;;;7.03;6.33;;;6.60;86.50;;;;;;5035748;28;20178;-89
2022/02/10 19:15:42;;;;;;;10.00;8.13;;;6.50;86.80;;;;;;5031537;28;20238;-89
2022/02/10 19:18:10;;;;;;;14.37;11.30;;;6.50;87.20;;;;;;5035181;28;20201;-89
2022/02/10 19:20:37;;;;;;;13.13;10.83;;;6.50;88.00;;;;;;5039512;28;20306;-91
2022/02/10 19:23:07;;;;;;;11.57;9.13;;;6.50;88.40;;;;;;5025643;28;20742;-90
2022/02/10 19:25:38;;;;;;;10.50;8.90;;;6.40;89.10;;;;;;5068928;28;20201;-89
2022/02/10 19:28:06;;;;;;;8.87;7.83;;;6.40;89.20;;;;;;5023126;28;20204;-90
2022/02/10 19:30:35;;;;;;;9.57;8.47;;;6.40;88.80;;;;;;5035370;28;20228;-89
2022/02/10 19:33:03;;;;;;;9.83;8.27;;;6.40;88.00;;;;;;5028844;28;20243;-90
2022/02/10 19:35:30;;;;;;;8.73;7.57;;;6.50;88.10;;;;;;5025512;28;20676;-89
2022/02/10 19:38:03;;;;;;;9.73;8.70;;;6.60;87.40;;;;;;5032154;28;20196;-89
2022/02/10 19:40:38;;;;;;;8.87;8.07;;;6.70;87.40;;;;;;5032649;28;20209;-89
2022/02/10 19:43:05;;;;;;;10.43;8.10;;;6.70;87.30;;;;;;5027451;28;20215;-90
2022/02/10 19:45:31;;;;;;;7.73;6.93;;;6.60;87.90;;;;;;5021338;28;20243;-89
2022/02/10 19:47:56;;;;;;;10.13;7.30;;;6.80;86.80;;;;;;5036545;28;20201;-90
2022/02/10 19:50:27;;;;;;;8.37;7.03;;;6.80;86.80;;;;;;5028308;28;20225;-89
2022/02/10 19:52:57;;;;;;;7.40;6.60;;;6.80;87.40;;;;;;5027436;28;20196;-89
2022/02/10 19:55:24;;;;;;;8.00;7.20;;;6.80;87.20;;;;;;5032608;28;20192;-90
2022/02/10 19:58:02;;;;;;;8.13;6.10;;;6.80;86.70;;;;;;5032573;28;20185;-90
2022/02/10 20:00:34;;;;;;;7.73;6.97;;;6.80;87.80;;;;;;5030509;28;20231;-89
2022/02/10 20:03:01;;;;;;;8.23;6.97;;;6.80;87.30;;;;;;5032956;28;20201;-90
2022/02/10 20:05:27;;;;;;;10.20;6.67;;;6.80;87.80;;;;;;5025278;28;20196;-89
2022/02/10 20:07:57;;;;;;;11.10;6.83;;;6.70;89.00;;;;;;5025654;28;20185;-92
2022/02/10 20:10:24;;;;;;;8.80;6.33;;;6.60;88.90;;;;;;5029694;28;20208;-90
2022/02/10 20:12:50;;;;;;;6.43;5.60;;;6.70;88.90;;;;;;5032804;28;20193;-89
2022/02/10 20:15:21;;;;;;;10.33;6.40;;;6.80;88.20;;;;;;5035842;28;20185;-90
2022/02/10 20:17:47;;;;;;;7.83;6.60;;;6.90;88.20;;;;;;5031260;28;20177;-90
2022/02/10 20:20:13;;;;;;;8.27;7.07;;;7.00;86.90;;;;;;5034503;28;20211;-89
2022/02/10 20:22:39;;;;;;;8.30;7.50;;;7.00;86.40;;;;;;5027496;28;20666;-89
2022/02/10 20:25:06;;;;;;;11.63;8.50;;;7.00;85.30;;;;;;5027672;28;20203;-90
2022/02/10 20:27:34;;;;;;;10.20;9.13;;;6.90;86.50;;;;;;5032274;28;20278;-90
2022/02/10 20:30:01;;;;;;;11.43;9.37;;;6.80;87.20;;;;;;5036119;28;20613;-89
2022/02/10 20:32:26;;;;;;;10.67;8.73;;;6.80;87.30;;;;;;5032444;28;20192;-90
2022/02/10 20:34:54;;;;;;;11.60;10.40;;;6.80;87.70;;;;;;5029802;28;20189;-90
2022/02/10 20:37:22;;;;;;;13.77;10.47;;;6.90;86.70;;;;;;5018025;28;20188;-90
2022/02/10 20:39:48;;;;;;;11.87;10.60;;;6.80;87.10;;;;;;5031085;28;20181;-90
2022/02/10 20:42:17;;;;;;;10.73;9.63;;;6.80;87.00;;;;;;5029051;28;20220;-90
2022/02/10 20:44:46;;;;;;;10.73;9.47;;;6.70;87.30;;;;;;5031847;28;20256;-89
2022/02/10 20:47:15;;;;;;;11.47;8.37;;;6.60;87.70;;;;;;5034752;28;20193;-90
2022/02/10 20:49:41;;;;;;;9.17;8.27;;;6.60;88.00;;;;;;5030948;28;20205;-90
2022/02/10 20:52:07;;;;;;;10.60;8.27;;;6.60;88.10;;;;;;5025699;28;20203;-90
2022/02/10 20:54:33;;;;;;;9.10;7.80;;;6.50;88.40;;;;;;5022932;28;20192;-90
2022/02/10 20:56:59;;;;;;;10.10;7.00;;;6.50;88.50;;;;;;5022381;28;20190;-90
2022/02/10 21:01:57;;;;;;;7.67;6.50;;;6.80;85.80;;;;;;5032313;28;20297;-89
2022/02/10 21:04:28;;;;;;;7.37;6.30;;;6.90;85.30;;;;;;5030808;28;20246;-89
2022/02/10 21:07:00;;;;;;;9.60;6.97;;;7.00;84.50;;;;;;5034364;28;20204;-89
2022/02/10 21:09:51;;;;;;;7.80;6.43;;;7.00;84.00;;;;;;5037198;28;20235;-90
2022/02/10 21:12:16;;;;;;;10.13;6.23;;;7.10;84.30;;;;;;5036703;28;20286;-89
2022/02/10 21:14:43;;;;;;;8.67;6.37;;;7.00;84.20;;;;;;5037941;28;20193;-89
2022/02/10 21:17:11;;;;;;;8.90;7.30;;;7.00;84.70;;;;;;5032603;28;20217;-90
2022/02/10 21:19:39;;;;;;;7.27;6.57;;;6.90;85.60;;;;;;5037908;28;20204;-90
2022/02/10 21:22:12;;;;;;;7.70;6.90;;;6.90;86.20;;;;;;5024071;28;20760;-89
2022/02/10 21:24:43;;;;;;;8.73;6.67;;;6.90;85.90;;;;;;5036952;28;20204;-90
2022/02/10 21:27:31;;;;;;;7.70;7.00;;;7.00;84.50;;;;;;5030857;28;20185;-90
2022/02/10 21:30:04;;;;;;;9.93;7.17;;;7.00;83.90;;;;;;5028622;28;20818;-89
2022/02/10 21:32:33;;;;;;;8.43;6.93;;;7.00;84.80;;;;;;5025882;28;20192;-89
2022/02/10 21:37:31;;;;;;;8.33;6.97;;;7.10;83.40;;;;;;5033266;28;20199;-89
2022/02/10 21:40:13;;;;;;;7.27;6.40;;;7.00;85.10;;;;;;5032506;28;20916;-90
2022/02/10 22:19:40;;;;;;;8.40;6.57;;;7.10;86.00;;;;;;5022131;28;20193;-90
2022/02/10 22:22:19;;;;;;;6.87;6.27;;;7.10;85.60;;;;;;5032765;28;20346;-90
2022/02/10 22:24:45;;;;;;;9.10;6.30;;;7.20;84.30;;;;;;5033612;28;20657;-90
2022/02/10 22:27:11;;;;;;;6.47;5.87;;;7.10;85.20;;;;;;5029366;28;20204;-89
2022/02/10 22:29:45;;;;;;;6.60;6.00;;;7.20;83.90;;;;;;5024031;28;20565;-89
2022/02/10 22:32:23;;;;;;;7.83;6.20;;;7.10;85.50;;;;;;5031309;28;20205;-90
2022/02/10 22:34:53;;;;;;;7.33;6.53;;;7.00;85.50;;;;;;5025511;28;20178;-89
2022/02/10 22:37:20;;;;;;;7.63;6.43;;;7.20;85.00;;;;;;5033216;28;20197;-89
2022/02/10 22:39:48;;;;;;;7.07;6.37;;;7.20;84.10;;;;;;5031918;28;20292;-90
2022/02/10 22:42:14;;;;;;;7.17;6.43;;;7.20;84.30;;;;;;5019053;28;20209;-89
2022/02/10 22:44:41;;;;;;;6.93;5.90;;;7.20;84.50;;;;;;5043712;28;20197;-90
2022/02/10 22:47:08;;;;;;;6.73;6.03;;;7.00;86.40;;;;;;5027848;28;20197;-90
2022/02/10 22:49:35;;;;;;;6.40;5.70;;;6.90;86.50;;;;;;5027989;28;20223;-90
2022/02/10 22:52:01;;;;;;;7.27;6.57;;;7.10;86.30;;;;;;5038962;28;20228;-89
2022/02/10 22:54:27;;;;;;;7.10;6.30;;;7.10;86.20;;;;;;5040172;28;20201;-90
2022/02/10 22:56:54;;;;;;;8.40;6.70;;;7.00;86.20;;;;;;5030576;28;20684;-89
2022/02/10 22:59:20;;;;;;;9.20;6.63;;;7.10;85.00;;;;;;5027488;28;20189;-90
2022/02/10 23:01:46;;;;;;;10.23;6.83;;;7.10;85.10;;;;;;5023556;28;20209;-89
2022/02/10 23:04:12;;;;;;;12.83;7.90;;;7.10;85.70;;;;;;5024279;28;20347;-89
2022/02/10 23:06:38;;;;;;;8.27;7.43;;;7.10;84.80;;;;;;5026157;28;20251;-89
2022/02/10 23:09:28;;;;;;;8.97;7.97;;;7.20;84.90;;;;;;5021669;28;20186;-89
2022/02/10 23:11:55;;;;;;;9.37;8.47;;;7.10;85.50;;;;;;5021492;28;20208;-89
2022/02/10 23:14:21;;;;;;;9.17;8.10;;;7.10;86.50;;;;;;5020746;28;20219;-90
2022/02/10 23:16:47;;;;;;;8.60;7.80;;;6.90;87.20;;;;;;5032933;28;20236;-90
2022/02/10 23:19:14;;;;;;;13.70;9.43;;;7.00;87.50;;;;;;5021692;28;20198;-90
2022/02/10 23:21:40;;;;;;;10.80;9.27;;;7.00;88.20;;;;;;5027497;28;20276;-89
2022/02/10 23:24:06;;;;;;;12.97;8.10;;;7.00;89.50;;;;;;5018687;28;20192;-89
2022/02/10 23:26:32;;;;;;;12.23;8.23;;;6.90;90.90;;;;;;5032099;28;20314;-89
2022/02/10 23:28:59;;;;;;;9.30;7.93;;;6.90;91.60;;;;;;5023105;28;20262;-90
2022/02/10 23:31:27;;;;;;;7.63;6.93;;;6.90;91.70;;;;;;5018980;28;20339;-88
2022/02/10 23:33:57;;;;;;;7.67;6.87;;;6.90;92.70;;;;;;5025356;28;20191;-89
2022/02/10 23:37:07;;;;;;;9.60;6.97;;;6.80;92.30;;;;;;5027475;28;20208;-89
2022/02/10 23:39:33;;;;;;;7.57;5.97;;;6.90;92.40;;;;;;5026326;28;20197;-89
2022/02/10 23:44:31;;;;;;;7.27;6.40;;;6.90;90.90;;;;;;5030241;28;20193;-89
2022/02/10 23:46:59;;;;;;;9.13;6.73;;;6.90;91.80;;;;;;5030759;28;20186;-89
2022/02/10 23:49:26;;;;;;;9.23;6.53;;;7.00;90.20;;;;;;5026353;28;20215;-89
2022/02/10 23:51:59;;;;;;;8.80;6.40;;;7.00;90.00;;;;;;5024443;28;20204;-89
2022/02/10 23:54:28;;;;;;;6.93;6.30;;;6.90;90.10;;;;;;5020357;28;20192;-89
2022/02/10 23:57:01;;;;;;;7.27;6.17;;;6.90;88.70;;;;;;5027448;28;20178;-89
